createdAt,value
2019-01-09T00:05:12.287Z,1.40
2019-01-09T00:08:13.694Z,1.43
2019-01-09T00:11:15.226Z,2.03
2019-01-09T00:14:15.386Z,1.17
2019-01-09T00:17:24.079Z,1.57
2019-01-09T00:20:25.438Z,1.60
2019-01-09T00:23:26.700Z,2.00
2019-01-09T00:26:27.915Z,1.27
2019-01-09T00:29:29.044Z,2.50
2019-01-09T00:35:37.682Z,1.57
2019-01-09T00:38:40.690Z,1.47
2019-01-09T00:41:42.411Z,1.37
2019-01-09T00:44:43.559Z,1.60
2019-01-09T00:47:44.694Z,1.53
2019-01-09T00:50:46.068Z,1.60
2019-01-09T00:53:47.973Z,1.40
2019-01-09T00:56:49.147Z,2.07
2019-01-09T00:59:50.671Z,1.43
2019-01-09T01:05:59.419Z,1.30
2019-01-09T01:09:00.750Z,1.10
2019-01-09T01:12:05.290Z,1.80
2019-01-09T01:15:07.060Z,1.50
2019-01-09T01:18:08.031Z,1.43
2019-01-09T01:21:09.563Z,1.67
2019-01-09T01:24:11.386Z,1.37
2019-01-09T01:27:12.948Z,1.50
2019-01-09T01:30:13.993Z,1.57
2019-01-09T01:36:22.848Z,2.97
2019-01-09T01:39:44.110Z,1.20
2019-01-09T01:42:45.263Z,1.47
2019-01-09T01:45:46.846Z,1.80
2019-01-09T01:48:48.320Z,1.50
2019-01-09T01:51:49.454Z,1.57
2019-01-09T01:54:51.295Z,1.47
2019-01-09T01:57:53.302Z,1.67
2019-01-09T02:00:54.974Z,2.93
2019-01-09T02:07:03.758Z,1.93
2019-01-09T02:10:05.248Z,1.27
2019-01-09T02:13:06.526Z,1.30
2019-01-09T02:16:08.381Z,1.20
2019-01-09T02:19:09.963Z,1.00
2019-01-09T02:22:11.514Z,1.00
2019-01-09T02:28:46.362Z,0.80
2019-01-09T02:31:48.127Z,0.70
2019-01-09T02:37:55.460Z,0.93
2019-01-09T02:41:04.433Z,1.40
2019-01-09T02:44:06.103Z,0.93
2019-01-09T02:47:07.190Z,1.30
2019-01-09T02:50:07.670Z,1.67
2019-01-09T02:56:23.335Z,2.00
2019-01-09T02:59:24.567Z,1.00
2019-01-09T03:02:26.306Z,0.70
2019-01-09T03:05:16.305Z,0.80
2019-01-09T03:11:21.445Z,0.80
2019-01-09T03:14:27.950Z,0.80
2019-01-09T03:17:29.000Z,0.83
2019-01-09T03:20:30.470Z,0.70
2019-01-09T03:23:31.874Z,0.93
2019-01-09T03:26:33.177Z,0.80
2019-01-09T03:29:34.318Z,0.80
2019-01-09T03:32:35.536Z,1.17
2019-01-09T03:35:36.608Z,0.63
2019-01-09T03:38:38.102Z,0.70
2019-01-09T03:41:39.407Z,0.73
2019-01-09T03:44:40.963Z,0.80
2019-01-09T03:47:42.387Z,0.80
2019-01-09T03:50:43.973Z,0.80
2019-01-09T03:53:45.446Z,0.80
2019-01-09T03:56:46.647Z,0.70
2019-01-09T03:59:47.726Z,0.83
2019-01-09T04:02:48.914Z,1.20
2019-01-09T04:05:50.757Z,1.00
2019-01-09T04:08:52.360Z,0.90
2019-01-09T04:11:53.834Z,1.80
2019-01-09T04:14:55.094Z,0.90
2019-01-09T04:17:55.142Z,1.50
2019-01-09T04:21:03.889Z,0.97
2019-01-09T04:24:10.982Z,1.23
2019-01-09T04:27:12.584Z,1.27
2019-01-09T04:30:13.767Z,1.53
2019-01-09T04:33:15.398Z,1.93
2019-01-09T04:39:28.987Z,1.40
2019-01-09T04:42:30.564Z,1.30
2019-01-09T04:45:31.854Z,1.13
2019-01-09T04:48:33.807Z,1.40
2019-01-09T04:51:34.935Z,1.63
2019-01-09T04:54:36.518Z,0.90
2019-01-09T04:57:38.114Z,1.30
2019-01-09T05:00:39.960Z,1.43
2019-01-09T05:03:40.138Z,1.23
2019-01-09T05:10:09.590Z,0.40
2019-01-09T05:13:10.720Z,0.40
2019-01-09T05:16:12.647Z,0.30
2019-01-09T05:19:13.963Z,0.30
2019-01-09T05:22:15.710Z,0.30
2019-01-09T05:25:16.722Z,0.40
2019-01-09T05:28:20.094Z,0.30
2019-01-09T05:31:21.279Z,0.60
2019-01-09T05:34:22.590Z,0.60
2019-01-09T05:40:31.662Z,0.70
2019-01-09T05:43:32.942Z,0.43
2019-01-09T05:46:34.167Z,0.50
2019-01-09T05:49:35.415Z,0.57
2019-01-09T05:52:36.631Z,0.80
2019-01-09T05:55:38.426Z,0.83
2019-01-09T05:58:39.512Z,0.60
2019-01-09T06:01:39.826Z,0.70
2019-01-09T06:04:41.510Z,1.37
2019-01-09T06:10:49.274Z,0.80
2019-01-09T06:13:50.571Z,1.57
2019-01-09T06:16:51.933Z,0.90
2019-01-09T06:19:52.911Z,0.60
2019-01-09T06:29:07.790Z,0.90
2019-01-09T06:32:08.875Z,1.07
2019-01-09T06:35:10.078Z,1.37
2019-01-09T06:38:17.591Z,0.90
2019-01-09T06:41:18.919Z,1.20
2019-01-09T06:44:19.963Z,1.20
2019-01-09T06:47:21.397Z,0.70
2019-01-09T06:50:21.382Z,1.30
2019-01-09T06:59:49.452Z,0.50
2019-01-09T07:06:06.125Z,0.90
2019-01-09T07:12:13.701Z,1.23
2019-01-09T07:21:50.619Z,1.10
2019-01-09T07:24:52.372Z,1.20
2019-01-09T07:27:54.006Z,1.17
2019-01-09T07:30:55.203Z,1.57
2019-01-09T07:33:56.750Z,1.50
2019-01-09T07:36:56.890Z,1.60
2019-01-09T07:43:12.380Z,0.90
2019-01-09T07:46:14.173Z,1.13
2019-01-09T07:49:14.101Z,1.20
2019-01-09T07:52:22.674Z,1.87
2019-01-09T07:55:30.382Z,1.90
2019-01-09T07:58:32.084Z,1.40
2019-01-09T08:01:33.679Z,1.13
2019-01-09T08:04:34.771Z,1.77
2019-01-09T08:07:36.254Z,1.27
2019-01-09T08:13:45.050Z,1.27
2019-01-09T08:16:46.434Z,1.40
2019-01-09T08:19:47.615Z,1.20
2019-01-09T08:22:48.568Z,1.50
2019-01-09T08:25:50.071Z,1.40
2019-01-09T08:28:39.856Z,1.57
2019-01-09T08:31:48.505Z,1.63
2019-01-09T08:34:50.133Z,1.40
2019-01-09T08:37:51.344Z,1.30
2019-01-09T08:44:00.335Z,1.37
2019-01-09T08:47:01.502Z,2.00
2019-01-09T08:50:03.047Z,1.53
2019-01-09T08:53:03.928Z,1.80
2019-01-09T08:56:05.232Z,1.37
2019-01-09T08:59:06.235Z,1.20
2019-01-09T09:02:07.882Z,1.37
2019-01-09T09:05:09.387Z,1.13
2019-01-09T09:08:12.256Z,1.00
2019-01-09T09:11:01.110Z,1.33
2019-01-09T09:13:50.749Z,1.27
2019-01-09T09:16:59.698Z,1.60
2019-01-09T09:20:01.245Z,1.40
2019-01-09T09:23:04.385Z,1.10
2019-01-09T09:26:05.976Z,1.50
2019-01-09T09:29:07.606Z,1.53
2019-01-09T09:32:09.239Z,1.60
2019-01-09T09:35:09.143Z,2.20
2019-01-09T09:38:20.707Z,2.30
2019-01-09T09:44:27.474Z,1.60
2019-01-09T09:47:29.244Z,1.57
2019-01-09T09:50:30.344Z,2.40
2019-01-09T09:53:32.218Z,1.30
2019-01-09T09:56:33.442Z,1.83
2019-01-09T09:59:34.503Z,2.20
2019-01-09T10:02:35.419Z,1.67
2019-01-09T10:05:40.506Z,1.13
2019-01-09T10:08:42.647Z,1.37
2019-01-09T10:14:51.002Z,1.90
2019-01-09T10:17:52.746Z,1.60
2019-01-09T10:20:54.651Z,1.10
2019-01-09T10:23:55.686Z,1.20
2019-01-09T10:26:57.659Z,1.53
2019-01-09T10:29:59.005Z,1.50
2019-01-09T10:33:00.555Z,1.20
2019-01-09T10:36:02.274Z,1.40
2019-01-09T10:39:05.202Z,1.43
2019-01-09T10:45:14.443Z,1.37
2019-01-09T10:48:23.159Z,1.67
2019-01-09T10:51:24.058Z,2.17
2019-01-09T10:54:25.521Z,1.87
2019-01-09T10:57:27.202Z,1.87
2019-01-09T11:00:28.218Z,1.17
2019-01-09T11:03:29.907Z,1.60
2019-01-09T11:06:30.844Z,1.37
2019-01-09T11:09:32.635Z,1.80
2019-01-09T11:15:40.607Z,1.73
2019-01-09T11:18:42.390Z,1.33
2019-01-09T11:21:44.166Z,1.20
2019-01-09T11:24:45.570Z,1.00
2019-01-09T11:27:46.603Z,1.77
2019-01-09T11:30:48.348Z,1.37
2019-01-09T11:33:53.857Z,1.57
2019-01-09T11:36:55.187Z,2.60
2019-01-09T11:39:56.336Z,1.07
2019-01-09T11:46:04.446Z,1.33
2019-01-09T11:49:06.146Z,2.03
2019-01-09T11:52:08.170Z,1.43
2019-01-09T11:55:12.230Z,1.17
2019-01-09T11:58:13.690Z,1.50
2019-01-09T12:01:15.014Z,1.57
2019-01-09T12:04:16.210Z,2.00
2019-01-09T12:07:16.031Z,2.00
2019-01-09T12:20:39.263Z,1.23
2019-01-09T12:23:40.938Z,1.10
2019-01-09T12:26:42.463Z,1.00
2019-01-09T12:29:44.270Z,2.03
2019-01-09T12:32:46.367Z,1.00
2019-01-09T12:35:48.719Z,1.60
2019-01-09T12:38:50.567Z,1.70
2019-01-09T12:41:51.896Z,1.20
2019-01-09T12:44:59.392Z,1.40
2019-01-09T12:48:00.686Z,1.20
2019-01-09T12:51:01.674Z,0.90
2019-01-09T12:53:51.494Z,1.23
2019-01-09T13:00:06.959Z,1.90
2019-01-09T13:03:08.840Z,1.37
2019-01-09T13:06:10.966Z,1.00
2019-01-09T13:09:12.066Z,1.60
2019-01-09T13:12:13.666Z,1.80
2019-01-09T13:15:20.742Z,1.30
2019-01-09T13:18:22.431Z,1.10
2019-01-09T13:21:23.919Z,1.70
2019-01-09T13:24:25.808Z,1.93
2019-01-09T13:27:27.170Z,1.90
2019-01-09T13:30:28.303Z,1.33
2019-01-09T13:33:29.447Z,1.33
2019-01-09T13:36:30.635Z,1.70
2019-01-09T13:39:31.587Z,1.30
2019-01-09T13:42:32.934Z,1.37
2019-01-09T13:45:39.973Z,1.57
2019-01-09T13:48:41.866Z,1.97
2019-01-09T13:51:42.950Z,1.67
2019-01-09T13:54:44.510Z,1.67
2019-01-09T13:57:46.350Z,1.90
2019-01-09T14:00:47.607Z,1.90
2019-01-09T14:03:49.827Z,1.80
2019-01-09T14:06:50.974Z,2.17
2019-01-09T14:09:52.571Z,1.33
2019-01-09T14:12:54.294Z,1.57
2019-01-09T14:16:01.495Z,1.10
2019-01-09T14:19:02.077Z,1.90
2019-01-09T14:22:03.771Z,1.50
2019-01-09T14:25:05.259Z,1.73
2019-01-09T14:28:06.514Z,1.80
2019-01-09T14:31:13.795Z,1.93
2019-01-09T14:34:15.220Z,1.70
2019-01-09T14:37:16.994Z,2.60
2019-01-09T14:40:18.061Z,2.23
2019-01-09T14:43:19.858Z,1.30
2019-01-09T14:46:27.139Z,2.00
2019-01-09T14:49:28.918Z,2.23
2019-01-09T14:52:30.669Z,1.53
2019-01-09T14:55:32.158Z,2.07
2019-01-09T14:58:34.042Z,1.73
2019-01-09T15:01:35.514Z,2.43
2019-01-09T15:04:37.207Z,2.80
2019-01-09T15:07:38.789Z,2.47
2019-01-09T15:10:39.931Z,1.37
2019-01-09T15:13:41.409Z,2.53
2019-01-09T15:16:48.850Z,1.40
2019-01-09T15:19:51.126Z,1.87
2019-01-09T15:22:52.122Z,1.97
2019-01-09T15:25:54.046Z,2.27
2019-01-09T15:28:56.429Z,1.87
2019-01-09T15:31:58.594Z,2.27
2019-01-09T15:35:00.885Z,2.23
2019-01-09T15:38:02.032Z,2.43
2019-01-09T15:41:02.911Z,2.87
2019-01-09T15:44:04.534Z,3.53
2019-01-09T15:50:33.518Z,2.07
2019-01-09T15:53:35.217Z,2.50
2019-01-09T15:56:37.701Z,2.47
2019-01-09T15:59:39.264Z,2.23
2019-01-09T16:02:41.816Z,2.10
2019-01-09T16:05:45.708Z,2.50
2019-01-09T16:08:48.045Z,2.50
2019-01-09T16:11:49.785Z,2.93
2019-01-09T16:14:51.869Z,2.77
2019-01-09T16:17:59.207Z,2.90
2019-01-09T16:21:01.522Z,3.10
2019-01-09T16:24:04.012Z,2.23
2019-01-09T16:27:05.632Z,2.40
2019-01-09T16:30:07.154Z,3.03
2019-01-09T16:33:09.326Z,2.23
2019-01-09T16:36:11.432Z,2.50
2019-01-09T16:39:13.650Z,2.67
2019-01-09T16:42:15.136Z,3.07
2019-01-09T16:45:16.462Z,1.87
2019-01-09T16:51:32.532Z,2.90
2019-01-09T16:54:34.582Z,2.97
2019-01-09T16:57:37.122Z,3.60
2019-01-09T17:00:38.782Z,3.07
2019-01-09T17:03:41.474Z,2.83
2019-01-09T17:06:43.149Z,2.77
2019-01-09T17:09:44.905Z,3.43
2019-01-09T17:12:47.282Z,3.33
2019-01-09T17:15:49.014Z,2.80
2019-01-09T17:21:58.110Z,3.23
2019-01-09T17:24:59.594Z,3.30
2019-01-09T17:28:01.343Z,4.93
2019-01-09T17:31:03.079Z,3.30
2019-01-09T17:34:08.557Z,3.10
2019-01-09T17:37:10.254Z,2.80
2019-01-09T17:40:11.633Z,3.87
2019-01-09T17:43:14.025Z,2.87
2019-01-09T17:46:15.748Z,2.73
2019-01-09T17:52:31.788Z,3.40
2019-01-09T17:55:33.290Z,4.07
2019-01-09T17:58:35.986Z,3.40
2019-01-09T18:01:37.470Z,4.00
2019-01-09T18:04:39.180Z,3.67
2019-01-09T18:07:41.641Z,3.40
2019-01-09T18:10:49.963Z,2.97
2019-01-09T18:13:46.579Z,3.50
2019-01-09T18:16:48.041Z,3.20
2019-01-09T18:19:55.851Z,3.37
2019-01-09T18:26:14.967Z,2.93
2019-01-09T18:29:17.859Z,3.93
2019-01-09T18:32:19.790Z,3.13
2019-01-09T18:35:23.872Z,3.27
2019-01-09T18:38:26.572Z,3.73
2019-01-09T18:45:40.004Z,3.63
2019-01-09T18:48:40.943Z,2.80
2019-01-09T18:54:49.370Z,2.87
2019-01-09T18:57:50.877Z,3.50
2019-01-09T19:00:54.145Z,3.60
2019-01-09T19:03:56.722Z,4.10
2019-01-09T19:06:58.685Z,3.50
2019-01-09T19:10:00.234Z,4.17
2019-01-09T19:13:01.430Z,2.33
2019-01-09T19:25:46.074Z,3.83
2019-01-09T19:28:47.674Z,3.10
2019-01-09T19:31:49.799Z,3.37
2019-01-09T19:34:51.074Z,2.90
2019-01-09T19:37:52.883Z,2.57
2019-01-09T19:40:54.598Z,2.83
2019-01-09T19:43:56.264Z,2.70
2019-01-09T19:46:58.005Z,3.10
2019-01-09T19:49:59.743Z,3.50
2019-01-09T19:53:07.054Z,3.57
2019-01-09T19:56:09.297Z,2.70
2019-01-09T19:59:10.251Z,2.90
2019-01-09T20:02:12.991Z,2.97
2019-01-09T20:05:15.444Z,2.60
2019-01-09T20:08:17.149Z,2.97
2019-01-09T20:11:26.243Z,2.73
2019-01-09T20:14:30.800Z,3.60
2019-01-09T20:17:36.578Z,3.00
2019-01-09T20:20:38.352Z,2.63
2019-01-09T20:23:45.550Z,4.37
2019-01-09T20:30:05.802Z,3.70
2019-01-09T20:33:07.999Z,2.83
2019-01-09T20:36:14.301Z,3.77
2019-01-09T20:39:17.378Z,2.90
2019-01-09T20:42:19.508Z,3.23
2019-01-09T20:45:21.034Z,3.47
2019-01-09T20:48:22.099Z,3.20
2019-01-09T20:51:23.795Z,3.33
2019-01-09T20:54:31.296Z,3.30
2019-01-09T20:57:33.933Z,3.13
2019-01-09T21:00:35.563Z,3.47
2019-01-09T21:03:37.693Z,3.67
2019-01-09T21:06:39.035Z,3.60
2019-01-09T21:09:40.825Z,2.70
2019-01-09T21:12:42.055Z,3.73
2019-01-09T21:15:44.389Z,3.10
2019-01-09T21:18:46.712Z,2.97
2019-01-09T21:21:47.977Z,2.73
2019-01-09T21:24:55.904Z,2.70
2019-01-09T21:27:58.114Z,3.20
2019-01-09T21:31:00.422Z,2.87
2019-01-09T21:34:01.760Z,2.80
2019-01-09T21:43:46.654Z,2.40
2019-01-09T21:46:48.335Z,2.40
2019-01-09T21:49:49.319Z,1.90
2019-01-09T21:52:51.398Z,2.20
2019-01-09T21:59:00.498Z,1.67
2019-01-09T22:02:00.670Z,1.70
2019-01-09T22:08:35.927Z,1.53
2019-01-09T22:11:37.474Z,1.90
2019-01-09T22:14:38.867Z,1.27
2019-01-09T22:17:38.950Z,1.47
2019-01-09T22:20:47.546Z,2.10
2019-01-09T22:23:49.338Z,1.30
2019-01-09T22:29:57.575Z,1.57
2019-01-09T22:32:58.694Z,1.30
2019-01-09T22:36:00.466Z,1.53
2019-01-09T22:39:01.954Z,1.60
2019-01-09T22:42:11.522Z,1.70
2019-01-09T22:45:09.222Z,1.37
2019-01-09T22:48:10.486Z,1.27
2019-01-09T22:51:12.252Z,1.37
2019-01-09T22:54:13.672Z,1.17
2019-01-09T23:00:22.518Z,1.83
2019-01-09T23:03:23.581Z,1.93
2019-01-09T23:06:25.443Z,1.57
2019-01-09T23:09:27.512Z,1.70
2019-01-09T23:12:29.299Z,1.40
2019-01-09T23:15:30.991Z,1.80
2019-01-09T23:18:32.783Z,1.10
2019-01-09T23:21:34.191Z,1.63
2019-01-09T23:24:35.350Z,1.33
2019-01-09T23:30:44.277Z,1.73
2019-01-09T23:33:45.335Z,1.43
2019-01-09T23:36:46.371Z,1.70
2019-01-09T23:39:53.548Z,1.40
2019-01-09T23:42:55.051Z,1.30
2019-01-09T23:45:56.636Z,1.40
2019-01-09T23:48:57.743Z,1.90
2019-01-09T23:51:58.014Z,1.30
